createdAt,value
2017-11-19T00:01:02.257Z,5.80
2017-11-19T00:03:30.496Z,5.80
2017-11-19T00:05:57.982Z,5.70
2017-11-19T00:08:26.260Z,5.80
2017-11-19T00:10:54.505Z,5.80
2017-11-19T00:13:21.983Z,5.80
2017-11-19T00:15:49.453Z,5.80
2017-11-19T00:18:17.720Z,5.70
2017-11-19T00:20:45.172Z,5.70
2017-11-19T00:23:14.141Z,5.70
2017-11-19T00:25:41.633Z,5.70
2017-11-19T00:28:09.856Z,5.80
2017-11-19T00:30:37.304Z,5.80
2017-11-19T00:33:04.824Z,5.80
2017-11-19T00:35:33.041Z,5.80
2017-11-19T00:38:00.563Z,5.70
2017-11-19T00:40:28.917Z,5.80
2017-11-19T00:42:56.372Z,5.80
2017-11-19T00:45:24.663Z,5.70
2017-11-19T00:47:52.913Z,5.60
2017-11-19T00:50:20.377Z,5.60
2017-11-19T00:52:49.358Z,5.60
2017-11-19T00:55:16.837Z,5.60
2017-11-19T00:57:44.301Z,5.60
2017-11-19T01:00:12.527Z,5.40
2017-11-19T01:02:40.026Z,5.40
2017-11-19T01:05:19.341Z,5.40
2017-11-19T01:07:47.122Z,5.30
2017-11-19T01:10:14.577Z,5.30
2017-11-19T01:12:42.975Z,5.20
2017-11-19T01:15:11.212Z,5.10
2017-11-19T01:17:38.676Z,5.10
2017-11-19T01:20:06.929Z,5.10
2017-11-19T01:22:34.392Z,5.10
2017-11-19T01:25:02.685Z,5.10
2017-11-19T01:27:30.145Z,5.00
2017-11-19T01:29:57.616Z,5.00
2017-11-19T01:32:25.077Z,5.10
2017-11-19T01:34:53.345Z,5.50
2017-11-19T01:37:20.825Z,5.50
2017-11-19T01:39:48.361Z,5.50
2017-11-19T01:42:15.822Z,5.50
2017-11-19T01:44:44.076Z,5.60
2017-11-19T01:47:12.336Z,5.60
2017-11-19T01:49:39.801Z,5.60
2017-11-19T01:52:07.293Z,5.60
2017-11-19T01:54:35.518Z,5.50
2017-11-19T01:57:03.018Z,5.50
2017-11-19T01:59:31.294Z,5.50
2017-11-19T02:01:59.569Z,5.40
2017-11-19T02:04:27.033Z,5.40
2017-11-19T02:06:55.272Z,5.40
2017-11-19T02:09:22.731Z,5.30
2017-11-19T02:11:50.197Z,5.30
2017-11-19T02:14:19.184Z,5.20
2017-11-19T02:16:46.649Z,5.20
2017-11-19T02:19:14.902Z,5.20
2017-11-19T02:21:42.389Z,5.20
2017-11-19T02:24:09.907Z,5.20
2017-11-19T02:26:37.588Z,5.30
2017-11-19T02:29:05.056Z,5.50
2017-11-19T02:31:33.306Z,5.70
2017-11-19T02:34:00.782Z,5.70
2017-11-19T02:36:28.247Z,5.80
2017-11-19T02:38:57.234Z,5.90
2017-11-19T02:41:26.209Z,5.90
2017-11-19T02:43:53.701Z,5.90
2017-11-19T02:46:21.150Z,5.90
2017-11-19T02:48:50.119Z,5.80
2017-11-19T02:51:17.584Z,5.80
2017-11-19T02:53:45.048Z,5.80
2017-11-19T02:56:12.521Z,5.70
2017-11-19T02:58:40.760Z,5.60
2017-11-19T03:01:08.225Z,5.60
2017-11-19T03:03:35.678Z,5.50
2017-11-19T03:06:03.160Z,5.50
2017-11-19T03:08:30.625Z,5.40
2017-11-19T03:10:58.865Z,5.20
2017-11-19T03:13:26.349Z,5.20
2017-11-19T03:15:53.812Z,5.20
2017-11-19T03:18:22.966Z,5.10
2017-11-19T03:20:50.457Z,5.10
2017-11-19T03:23:17.920Z,5.00
2017-11-19T03:25:46.170Z,4.90
2017-11-19T03:28:15.171Z,4.90
2017-11-19T03:30:42.693Z,4.90
2017-11-19T03:33:10.161Z,5.00
2017-11-19T03:35:37.654Z,4.90
2017-11-19T03:38:05.213Z,5.00
2017-11-19T03:40:33.441Z,5.10
2017-11-19T03:43:00.931Z,5.10
2017-11-19T03:45:28.389Z,5.20
2017-11-19T03:47:55.887Z,5.30
2017-11-19T03:50:24.111Z,5.40
2017-11-19T03:52:51.604Z,5.40
2017-11-19T03:55:19.873Z,5.50
2017-11-19T03:57:48.186Z,5.60
2017-11-19T04:00:15.719Z,5.60
2017-11-19T04:02:43.949Z,5.60
2017-11-19T04:05:11.537Z,5.60
2017-11-19T04:07:39.765Z,5.60
2017-11-19T04:10:07.252Z,5.60
2017-11-19T04:12:34.846Z,5.60
2017-11-19T04:15:03.076Z,5.70
2017-11-19T04:17:30.539Z,5.70
2017-11-19T04:19:58.004Z,5.80
2017-11-19T04:22:25.584Z,5.90
2017-11-19T04:24:53.814Z,6.10
2017-11-19T04:27:21.307Z,6.10
2017-11-19T04:29:49.570Z,6.10
2017-11-19T04:32:17.036Z,6.10
2017-11-19T04:34:44.601Z,6.10
2017-11-19T04:37:12.069Z,6.20
2017-11-19T04:39:40.296Z,6.40
2017-11-19T04:42:07.777Z,6.40
2017-11-19T04:44:36.753Z,6.40
2017-11-19T04:47:04.218Z,6.40
2017-11-19T04:49:31.704Z,6.40
2017-11-19T04:51:59.945Z,6.30
2017-11-19T04:54:28.037Z,6.30
2017-11-19T04:56:56.264Z,6.30
2017-11-19T04:59:23.822Z,6.30
2017-11-19T05:01:51.328Z,6.30
2017-11-19T05:04:18.809Z,6.30
2017-11-19T05:06:47.046Z,6.30
2017-11-19T05:09:16.022Z,6.30
2017-11-19T05:11:43.517Z,6.30
2017-11-19T05:14:11.087Z,6.30
2017-11-19T05:16:39.317Z,6.30
2017-11-19T05:19:06.824Z,6.30
2017-11-19T05:21:35.076Z,6.40
2017-11-19T05:24:02.565Z,6.40
2017-11-19T05:26:30.143Z,6.50
2017-11-19T05:28:57.622Z,6.50
2017-11-19T05:31:25.092Z,6.60
2017-11-19T05:33:52.584Z,6.60
2017-11-19T05:36:20.817Z,6.60
2017-11-19T05:38:49.065Z,6.70
2017-11-19T05:41:16.571Z,6.70
2017-11-19T05:43:44.031Z,6.70
2017-11-19T05:46:11.494Z,6.80
2017-11-19T05:48:39.068Z,6.80
2017-11-19T05:51:07.334Z,6.80
2017-11-19T05:53:35.574Z,6.80
2017-11-19T05:56:03.051Z,6.80
2017-11-19T05:58:30.504Z,6.70
2017-11-19T06:00:57.968Z,6.70
2017-11-19T06:03:26.226Z,6.60
2017-11-19T06:05:53.680Z,6.60
2017-11-19T06:08:21.145Z,6.60
2017-11-19T06:10:48.718Z,6.50
2017-11-19T06:13:16.172Z,6.50
2017-11-19T06:15:44.411Z,6.40
2017-11-19T06:18:11.876Z,6.40
2017-11-19T06:20:39.350Z,6.40
2017-11-19T06:23:07.583Z,6.40
2017-11-19T06:25:35.396Z,6.40
2017-11-19T06:28:02.865Z,6.30
2017-11-19T06:30:31.099Z,6.40
2017-11-19T06:32:58.567Z,6.40
2017-11-19T06:35:26.383Z,6.40
2017-11-19T06:37:53.936Z,6.50
2017-11-19T06:40:21.407Z,6.50
2017-11-19T06:42:48.921Z,6.50
2017-11-19T06:45:16.396Z,6.50
2017-11-19T06:47:44.657Z,6.40
2017-11-19T06:50:12.115Z,6.40
2017-11-19T06:52:39.838Z,6.40
2017-11-19T06:55:07.352Z,6.40
2017-11-19T06:57:35.592Z,6.50
2017-11-19T07:00:03.067Z,6.50
2017-11-19T07:02:30.559Z,6.50
2017-11-19T07:04:58.092Z,6.50
2017-11-19T07:07:26.350Z,6.50
2017-11-19T07:09:53.846Z,6.50
2017-11-19T07:12:22.676Z,6.60
2017-11-19T07:14:50.471Z,6.60
2017-11-19T07:17:18.031Z,6.60
2017-11-19T07:19:45.481Z,6.60
2017-11-19T07:22:13.041Z,6.60
2017-11-19T07:24:40.504Z,6.70
2017-11-19T07:27:08.742Z,6.70
2017-11-19T07:29:36.209Z,6.70
2017-11-19T07:32:03.669Z,6.70
2017-11-19T07:34:31.126Z,6.70
2017-11-19T07:36:59.382Z,6.60
2017-11-19T07:39:26.841Z,6.70
2017-11-19T07:41:54.322Z,6.70
2017-11-19T07:44:22.568Z,6.80
2017-11-19T07:46:50.034Z,6.80
2017-11-19T07:49:18.268Z,6.70
2017-11-19T07:51:45.773Z,6.70
2017-11-19T07:54:13.236Z,6.60
2017-11-19T07:56:42.204Z,6.40
2017-11-19T07:59:09.709Z,6.40
2017-11-19T08:01:37.993Z,6.30
2017-11-19T08:04:06.237Z,6.30
2017-11-19T08:06:33.721Z,6.30
2017-11-19T08:09:01.944Z,6.40
2017-11-19T08:11:29.437Z,6.40
2017-11-19T08:13:56.917Z,6.40
2017-11-19T08:16:24.454Z,6.50
2017-11-19T08:18:52.708Z,6.60
2017-11-19T08:21:20.188Z,6.60
2017-11-19T08:23:48.440Z,6.70
2017-11-19T08:26:15.917Z,6.70
2017-11-19T08:28:43.414Z,6.80
2017-11-19T08:31:10.892Z,6.90
2017-11-19T08:33:38.403Z,6.90
2017-11-19T08:36:06.666Z,7.00
2017-11-19T08:38:34.147Z,7.00
2017-11-19T08:41:01.685Z,7.20
2017-11-19T08:43:29.177Z,7.30
2017-11-19T08:45:56.710Z,7.40
2017-11-19T08:48:24.948Z,7.50
2017-11-19T08:50:52.444Z,7.50
2017-11-19T08:53:20.681Z,7.70
2017-11-19T08:55:48.145Z,7.70
2017-11-19T08:58:15.726Z,7.70
2017-11-19T09:00:43.184Z,7.90
2017-11-19T09:03:11.443Z,8.00
2017-11-19T09:05:38.926Z,8.00
2017-11-19T09:08:07.220Z,8.30
2017-11-19T09:10:34.681Z,8.30
2017-11-19T09:13:02.969Z,8.40
2017-11-19T09:15:30.459Z,8.50
2017-11-19T09:17:57.917Z,8.60
2017-11-19T09:20:25.398Z,8.40
2017-11-19T09:22:52.858Z,8.40
2017-11-19T09:25:21.098Z,8.20
2017-11-19T09:27:48.597Z,8.20
2017-11-19T09:30:16.833Z,8.40
2017-11-19T09:32:44.297Z,8.40
2017-11-19T09:35:11.794Z,8.60
2017-11-19T09:37:39.413Z,8.80
2017-11-19T09:40:06.928Z,9.10
2017-11-19T09:42:34.491Z,9.30
2017-11-19T09:45:01.962Z,9.40
2017-11-19T09:47:29.437Z,9.20
2017-11-19T09:49:57.735Z,9.00
2017-11-19T09:52:25.305Z,8.80
2017-11-19T09:54:53.563Z,8.50
2017-11-19T09:57:21.491Z,8.50
2017-11-19T09:59:48.961Z,8.60
2017-11-19T10:02:16.448Z,8.90
2017-11-19T10:04:43.937Z,9.20
2017-11-19T10:07:11.393Z,9.50
2017-11-19T10:09:38.854Z,9.80
2017-11-19T10:12:06.337Z,10.00
2017-11-19T10:14:33.840Z,10.00
2017-11-19T10:17:02.089Z,10.00
2017-11-19T10:19:29.568Z,10.00
2017-11-19T10:21:57.046Z,9.90
2017-11-19T10:24:25.284Z,9.80
2017-11-19T10:26:52.853Z,9.80
2017-11-19T10:29:20.312Z,9.80
2017-11-19T10:31:47.776Z,9.90
2017-11-19T10:34:15.248Z,10.00
2017-11-19T10:36:43.488Z,10.20
2017-11-19T10:39:10.969Z,10.20
2017-11-19T10:41:39.249Z,10.70
2017-11-19T10:44:07.530Z,10.90
2017-11-19T10:46:35.771Z,11.20
2017-11-19T10:49:03.245Z,11.20
2017-11-19T10:51:30.761Z,11.60
2017-11-19T10:53:58.270Z,11.80
2017-11-19T10:56:27.035Z,11.20
2017-11-19T10:58:54.638Z,11.10
2017-11-19T11:01:22.353Z,10.60
2017-11-19T11:03:49.942Z,10.20
2017-11-19T11:06:18.192Z,9.80
2017-11-19T11:08:45.669Z,9.80
2017-11-19T11:11:13.933Z,9.90
2017-11-19T11:13:42.269Z,10.00
2017-11-19T11:16:09.741Z,10.00
2017-11-19T11:18:37.346Z,10.20
2017-11-19T11:21:04.894Z,10.30
2017-11-19T11:23:32.465Z,10.50
2017-11-19T11:26:00.717Z,10.70
2017-11-19T11:28:28.226Z,10.70
2017-11-19T11:30:55.690Z,10.70
2017-11-19T11:33:23.169Z,10.70
2017-11-19T11:35:51.361Z,10.50
2017-11-19T11:38:18.937Z,10.30
2017-11-19T11:40:47.205Z,10.30
2017-11-19T11:43:15.457Z,10.40
2017-11-19T11:45:42.933Z,10.40
2017-11-19T11:48:10.414Z,10.60
2017-11-19T11:50:38.652Z,10.90
2017-11-19T11:53:06.166Z,10.90
2017-11-19T11:55:33.656Z,10.80
2017-11-19T11:58:01.141Z,10.50
2017-11-19T12:00:28.701Z,10.30
2017-11-19T12:02:56.176Z,10.20
2017-11-19T12:05:24.413Z,10.40
2017-11-19T12:07:51.879Z,10.30
2017-11-19T12:10:20.141Z,10.50
2017-11-19T12:12:47.597Z,10.50
2017-11-19T12:15:15.080Z,10.50
2017-11-19T12:17:43.350Z,10.40
2017-11-19T12:20:10.833Z,10.40
2017-11-19T12:22:38.419Z,10.30
2017-11-19T12:25:05.916Z,10.40
2017-11-19T12:27:33.383Z,10.40
2017-11-19T12:30:00.848Z,10.60
2017-11-19T12:32:29.117Z,10.50
2017-11-19T12:34:56.589Z,10.50
2017-11-19T12:37:24.844Z,10.80
2017-11-19T12:39:52.313Z,10.70
2017-11-19T12:42:21.192Z,11.30
2017-11-19T12:44:48.758Z,11.30
2017-11-19T12:47:16.312Z,11.40
2017-11-19T12:49:43.786Z,11.30
2017-11-19T12:52:12.025Z,11.30
2017-11-19T12:54:39.516Z,11.30
2017-11-19T12:57:07.769Z,11.30
2017-11-19T12:59:35.265Z,11.30
2017-11-19T13:02:02.773Z,11.20
2017-11-19T13:04:30.350Z,11.20
2017-11-19T13:06:57.952Z,11.20
2017-11-19T13:09:25.449Z,11.10
2017-11-19T13:11:52.931Z,11.00
2017-11-19T13:14:21.183Z,10.80
2017-11-19T13:16:48.666Z,10.70
2017-11-19T13:19:16.953Z,10.70
2017-11-19T13:21:45.213Z,10.80
2017-11-19T13:24:13.466Z,10.80
2017-11-19T13:26:41.373Z,10.80
2017-11-19T13:29:08.869Z,10.40
2017-11-19T13:31:36.364Z,10.00
2017-11-19T13:34:03.820Z,9.80
2017-11-19T13:36:32.057Z,9.50
2017-11-19T13:38:59.540Z,9.50
2017-11-19T13:41:27.005Z,9.40
2017-11-19T13:43:54.482Z,9.30
2017-11-19T13:46:22.716Z,9.20
2017-11-19T13:48:50.198Z,9.10
2017-11-19T13:51:17.685Z,9.20
2017-11-19T13:53:45.141Z,9.30
2017-11-19T13:56:12.675Z,9.40
2017-11-19T13:58:40.155Z,9.40
2017-11-19T14:01:08.437Z,9.40
2017-11-19T14:03:35.956Z,9.40
2017-11-19T14:06:03.433Z,9.40
2017-11-19T14:08:31.657Z,9.50
2017-11-19T14:10:59.107Z,9.50
2017-11-19T14:13:27.212Z,9.50
2017-11-19T14:15:54.684Z,9.60
2017-11-19T14:18:22.952Z,9.60
2017-11-19T14:20:50.426Z,9.60
2017-11-19T14:23:18.688Z,9.50
2017-11-19T14:25:46.386Z,9.50
2017-11-19T14:28:13.902Z,9.50
2017-11-19T14:30:41.388Z,9.40
2017-11-19T14:33:08.913Z,9.40
2017-11-19T14:35:36.481Z,9.20
2017-11-19T14:38:03.943Z,9.20
2017-11-19T14:40:32.194Z,9.10
2017-11-19T14:42:59.680Z,9.10
2017-11-19T14:45:27.959Z,9.00
2017-11-19T14:47:55.506Z,9.00
2017-11-19T14:50:23.745Z,9.10
2017-11-19T14:52:51.216Z,9.10
2017-11-19T14:55:18.853Z,9.10
2017-11-19T14:57:46.311Z,9.10
2017-11-19T15:00:13.779Z,9.00
2017-11-19T15:02:41.256Z,8.90
2017-11-19T15:05:09.525Z,8.70
2017-11-19T15:07:37.781Z,8.60
2017-11-19T15:10:05.277Z,8.70
2017-11-19T15:12:32.730Z,8.60
2017-11-19T15:15:00.208Z,8.50
2017-11-19T15:17:28.437Z,8.30
2017-11-19T15:19:55.901Z,8.30
2017-11-19T15:22:23.357Z,8.30
2017-11-19T15:24:50.924Z,8.40
2017-11-19T15:27:18.384Z,8.40
2017-11-19T15:29:45.841Z,8.40
2017-11-19T15:32:14.080Z,8.50
2017-11-19T15:34:41.565Z,8.50
2017-11-19T15:37:09.858Z,8.30
2017-11-19T15:39:38.140Z,8.20
2017-11-19T15:42:06.413Z,8.10
2017-11-19T15:44:34.668Z,8.00
2017-11-19T15:47:02.961Z,7.90
2017-11-19T15:49:31.317Z,7.90
2017-11-19T15:51:58.847Z,7.90
2017-11-19T15:54:26.357Z,7.80
2017-11-19T15:56:54.657Z,7.70
2017-11-19T15:59:22.240Z,7.70
2017-11-19T16:01:49.753Z,7.70
2017-11-19T16:04:17.996Z,7.90
2017-11-19T16:06:45.542Z,7.80
2017-11-19T16:09:13.047Z,7.80
2017-11-19T16:11:41.310Z,7.80
2017-11-19T16:14:08.822Z,7.80
2017-11-19T16:16:36.318Z,7.80
2017-11-19T16:19:03.886Z,7.80
2017-11-19T16:21:31.341Z,7.70
2017-11-19T16:23:58.821Z,7.70
2017-11-19T16:26:27.488Z,7.60
2017-11-19T16:28:54.945Z,7.60
2017-11-19T16:31:22.417Z,7.60
2017-11-19T16:33:50.673Z,7.60
2017-11-19T16:36:18.153Z,7.50
2017-11-19T16:38:45.686Z,7.50
2017-11-19T16:41:13.955Z,7.50
2017-11-19T16:43:41.429Z,7.40
2017-11-19T16:46:09.698Z,7.40
2017-11-19T16:48:37.982Z,7.40
2017-11-19T16:51:06.257Z,7.40
2017-11-19T16:53:34.527Z,7.40
2017-11-19T16:56:02.710Z,7.40
2017-11-19T16:58:30.944Z,7.40
2017-11-19T17:00:58.458Z,7.40
2017-11-19T17:03:26.715Z,7.40
2017-11-19T17:05:55.294Z,7.50
2017-11-19T17:08:23.536Z,7.50
2017-11-19T17:10:50.993Z,7.50
2017-11-19T17:13:18.472Z,7.50
2017-11-19T17:15:45.960Z,7.50
2017-11-19T17:18:14.193Z,7.50
2017-11-19T17:20:41.661Z,7.50
2017-11-19T17:23:09.272Z,7.50
2017-11-19T17:25:36.755Z,7.60
2017-11-19T17:28:04.256Z,7.60
2017-11-19T17:30:32.520Z,7.50
2017-11-19T17:33:00.772Z,7.40
2017-11-19T17:35:28.241Z,7.40
2017-11-19T17:37:55.852Z,7.40
2017-11-19T17:40:23.333Z,7.30
2017-11-19T17:42:50.797Z,7.30
2017-11-19T17:45:18.264Z,7.30
2017-11-19T17:47:45.725Z,7.30
2017-11-19T17:50:13.182Z,7.30
2017-11-19T17:52:40.688Z,7.30
2017-11-19T17:55:08.590Z,7.30
2017-11-19T17:57:36.064Z,7.40
2017-11-19T18:00:04.361Z,7.40
2017-11-19T18:02:32.584Z,7.40
2017-11-19T18:05:00.047Z,7.40
2017-11-19T18:07:28.349Z,7.50
2017-11-19T18:09:55.812Z,7.50
2017-11-19T18:12:23.370Z,7.50
2017-11-19T18:14:50.929Z,7.40
2017-11-19T18:17:18.398Z,7.40
2017-11-19T18:19:46.673Z,7.40
2017-11-19T18:22:14.936Z,7.40
2017-11-19T18:24:42.411Z,7.40
2017-11-19T18:27:10.664Z,7.40
2017-11-19T18:29:38.167Z,7.30
2017-11-19T18:32:05.684Z,7.30
2017-11-19T18:34:33.233Z,7.20
2017-11-19T18:37:01.210Z,7.10
2017-11-19T18:39:29.480Z,7.00
2017-11-19T18:41:57.061Z,7.00
2017-11-19T18:44:25.323Z,6.90
2017-11-19T18:46:53.571Z,6.80
2017-11-19T18:49:21.056Z,6.80
2017-11-19T18:51:49.289Z,6.70
2017-11-19T18:54:16.765Z,6.70
2017-11-19T18:56:44.313Z,6.70
2017-11-19T18:59:11.783Z,6.70
2017-11-19T19:01:39.297Z,6.70
2017-11-19T19:04:07.491Z,6.70
2017-11-19T19:06:34.987Z,6.70
2017-11-19T19:09:02.464Z,6.70
2017-11-19T19:11:30.729Z,6.70
2017-11-19T19:13:59.016Z,6.80
2017-11-19T19:16:27.285Z,6.80
2017-11-19T19:18:55.554Z,6.80
2017-11-19T19:21:23.829Z,6.90
2017-11-19T19:23:53.405Z,6.90
2017-11-19T19:26:21.907Z,6.90
2017-11-19T19:28:49.409Z,7.00
2017-11-19T19:31:16.912Z,7.00
2017-11-19T19:33:44.391Z,7.00
2017-11-19T19:36:12.642Z,7.00
2017-11-19T19:38:40.131Z,7.00
2017-11-19T19:41:07.652Z,7.00
2017-11-19T19:43:35.165Z,6.90
2017-11-19T19:46:03.488Z,6.90
2017-11-19T19:48:31.900Z,6.80
2017-11-19T19:51:00.152Z,6.60
2017-11-19T19:53:29.148Z,6.50
2017-11-19T19:55:57.396Z,6.50
2017-11-19T19:58:24.876Z,6.50
2017-11-19T20:00:53.159Z,6.40
2017-11-19T20:03:20.721Z,6.40
2017-11-19T20:05:48.200Z,6.40
2017-11-19T20:08:16.436Z,6.40
2017-11-19T20:10:44.025Z,6.40
2017-11-19T20:13:12.275Z,6.30
2017-11-19T20:15:39.741Z,6.30
2017-11-19T20:18:07.222Z,6.30
2017-11-19T20:20:35.473Z,6.40
2017-11-19T20:23:03.048Z,6.40
2017-11-19T20:25:31.317Z,6.40
2017-11-19T20:27:59.595Z,6.50
2017-11-19T20:30:27.852Z,6.50
2017-11-19T20:32:55.335Z,6.40
2017-11-19T20:35:23.588Z,6.40
2017-11-19T20:37:51.077Z,6.40
2017-11-19T20:40:18.567Z,6.40
2017-11-19T20:42:46.040Z,6.40
2017-11-19T20:45:13.509Z,6.40
2017-11-19T20:47:41.021Z,6.40
2017-11-19T20:50:08.488Z,6.40
2017-11-19T20:52:35.988Z,6.40
2017-11-19T20:55:03.474Z,6.40
2017-11-19T20:57:31.711Z,6.50
2017-11-19T20:59:59.183Z,6.50
2017-11-19T21:02:26.680Z,6.50
2017-11-19T21:04:54.162Z,6.60
2017-11-19T21:07:22.619Z,6.60
2017-11-19T21:09:50.107Z,6.70
2017-11-19T21:12:18.361Z,6.80
2017-11-19T21:14:45.833Z,6.80
2017-11-19T21:17:14.092Z,7.00
2017-11-19T21:19:42.397Z,7.00
2017-11-19T21:22:09.888Z,7.10
2017-11-19T21:24:38.201Z,7.20
2017-11-19T21:27:05.691Z,7.20
2017-11-19T21:29:33.293Z,7.20
2017-11-19T21:32:00.784Z,7.30
2017-11-19T21:34:28.275Z,7.30
2017-11-19T21:36:55.756Z,7.30
2017-11-19T21:39:24.001Z,7.30
2017-11-19T21:41:51.565Z,7.30
2017-11-19T21:44:19.036Z,7.30
2017-11-19T21:46:46.532Z,7.30
2017-11-19T21:49:14.028Z,7.30
2017-11-19T21:51:41.524Z,7.30
2017-11-19T21:54:09.861Z,7.20
2017-11-19T21:56:37.346Z,7.20
2017-11-19T21:59:05.606Z,7.20
2017-11-19T22:01:33.100Z,7.20
2017-11-19T22:04:00.906Z,7.20
2017-11-19T22:06:28.385Z,7.20
2017-11-19T22:08:55.865Z,7.20
2017-11-19T22:11:24.105Z,7.30
2017-11-19T22:13:51.580Z,7.20
2017-11-19T22:16:19.055Z,7.30
2017-11-19T22:18:47.613Z,7.20
2017-11-19T22:21:15.085Z,7.10
2017-11-19T22:23:43.210Z,7.10
2017-11-19T22:26:10.677Z,7.10
2017-11-19T22:28:38.225Z,7.10
2017-11-19T22:31:06.680Z,7.10
2017-11-19T22:33:34.160Z,7.00
2017-11-19T22:36:01.629Z,7.00
2017-11-19T22:38:29.101Z,7.00
2017-11-19T22:40:56.572Z,7.00
2017-11-19T22:43:24.038Z,6.90
2017-11-19T22:45:52.289Z,6.80
2017-11-19T22:48:20.390Z,6.80
2017-11-19T22:50:48.623Z,6.70
2017-11-19T22:53:16.096Z,6.70
2017-11-19T22:55:43.591Z,6.70
2017-11-19T22:58:11.825Z,6.80
2017-11-19T23:00:39.309Z,6.70
2017-11-19T23:03:07.783Z,6.80
2017-11-19T23:05:36.161Z,6.80
2017-11-19T23:08:04.407Z,6.90
2017-11-19T23:10:31.876Z,6.90
2017-11-19T23:13:00.886Z,6.90
2017-11-19T23:15:29.157Z,6.90
2017-11-19T23:17:56.624Z,6.90
2017-11-19T23:20:24.895Z,6.90
2017-11-19T23:22:53.157Z,6.80
2017-11-19T23:25:20.739Z,6.80
2017-11-19T23:27:49.030Z,6.80
2017-11-19T23:30:16.551Z,6.80
2017-11-19T23:32:44.028Z,6.80
2017-11-19T23:35:12.350Z,6.80
2017-11-19T23:37:39.841Z,6.80
2017-11-19T23:40:08.909Z,6.80
2017-11-19T23:42:36.403Z,6.80
2017-11-19T23:45:03.887Z,6.90
2017-11-19T23:47:31.384Z,6.90
2017-11-19T23:49:58.879Z,7.00
2017-11-19T23:52:27.140Z,7.00
2017-11-19T23:54:54.621Z,7.00
2017-11-19T23:57:22.880Z,7.00
2017-11-19T23:59:50.451Z,7.00
